River Of Ponds, Canada
Current Conditions -  °F | °C
As of 10:00 AM on Thursday 23 Oct 2014 (Local Time) from CWDH Reporting Station
Clear Clear  
Wind Chill: 37°   Ceiling: Unl
Heat Index: 37°   Visibility: 9mi
Dew Point: 30°   Wind: 3mph
Humidity: 77%   Direction: 120°ESE
Pressure: 30.35"   Gusts: NA
Location:  50.53°N, 57.38°W
Report Text: CWDH 231200Z AUTO 12003KT 9SM NSC 03/M01 A3035 RMK SLP279 T00281009 10028 21013 WSI/SWOB
Loading
Personal Weather Stations






























Interactive Weather Map New forecast layout! Learn more

10-Day Weather Forecast

Advertisements
Track Severe Weather on mobile